Chandler, Oklahoma
Current Conditions -  °F | °C
As of 6:35 PM on Sunday 21 Dec 2014 (Local Time) from KCQB Reporting Station
Drizzle Drizzle  
Wind Chill: 41°   Ceiling: 600
Heat Index: 46°   Visibility: 3mi
Dew Point: 46°   Wind: 12mph
Humidity: 100%   Direction: 150°SSE
Pressure: 29.78"   Gusts: NA
Location:  35.7°N, 96.88°W
Report Text: KCQB 220035Z AUTO 15010KT 3SM -DZ OVC006 08/08 A2978 RMK AO2
Loading
Personal Weather Stations






























Interactive Weather Map New forecast layout! Learn more

10-Day Weather Forecast

Advertisements
Track Severe Weather on mobile